Racecast

Maddi Duke

Frog Leg Track Club (MI) · 11 · SECMI D1MONROE · Compare head to head

Athlete rating 131.3 2026 TF season
Best race 139.8 TF
Races 172
Seasons 7 2020 — 2026

RankedNation #986·MI #34·Team #1 ?

Rating scale ?
Speed rating — all races

Cross Country

XC speed rating

2025 XC 119.4

Temperance Bedford (MI) · Grade 11

Date Meet Event Result Place Rating Difficulty PR/SR Flags
2025-10-25 Lake Erie Metro Park OFFICIAL 5000m 16:50.3 23rd · 3rd on team 121.0 +0.007 ★CR CSR
2025-10-16 Hudson Mills Metropark - OFFICIAL 5000m 17:27.2 29th · 3rd on team 116.3 -0.006 ★CR CSR
2025-10-11 Munson Park 5000m 17:12.8 6th · 3rd on team 119.3 +0.007 ★CR CSR
2025-09-27 Lake Erie Metro Park OFFICIAL 5000m 17:10.5 14th · 3rd on team 120.7 +0.007 CSR
2025-09-25 Indian Creek OFFICIAL 5000m 16:42 20th · 3rd on team 122.1 +0.004 ★PR ★CR SR CSR RSR
2025-09-20 Ella Sharp Park OFFICIAL 5000m 17:21.3 136th · 3rd on team 117.4 -0.001 ★CR CSR
2025-09-09 Willow Metropark OFFICIAL 5000m 17:14.8 34th · 3rd on team 118.6 -0.003 ★CR CSR
2025-08-30 BGSU 5000m 16:59.1 41st · 3rd on team 119.3 -0.003 ★CR SR CSR RSR
2025-08-30 Bowling Green 5000m 16:59.1 41st · 3rd on team 119.6 -0.003 ★CR CSR RSR
2025-08-22 Saline High School 5000m -0.009 SR CSR

2024 XC 113.3

Temperance Bedford (MI) · Grade 10

Date Meet Event Result Place Rating Difficulty PR/SR Flags
2024-11-02 Michigan International Speedway (MIS) 5000m 16:44.2 156th · 3rd on team 120.9 -0.006 PR ★CR SR CSR RSR
2024-10-26 Lake Erie Metro Park OFFICIAL 5000m 17:09.5 22nd · 3rd on team 120.0 +0.007 PR CR SR CSR RSR
2024-10-17 Hudson Mills Metropark - OFFICIAL 5000m 17:29.17 34th · 7th on team 116.5 -0.006 PR CR SR CSR
2024-10-12 Munson Park 5000m 17:52.3 5th · 3rd on team 115.4 +0.007 CR CSR
2024-09-28 Lake Erie Metro Park OFFICIAL 5000m 18:10.4 2nd · 1st on team 113.3 +0.007 CSR
2024-09-24 Pioneer HS 5000m 18:39.7 9th · 1st on team 111.8 +0.018 ★CR CSR
2024-09-21 Ella Sharp Park OFFICIAL 5000m 18:48 230th · 10th on team 108.9 -0.001 CSR
2024-09-10 Willow Metropark OFFICIAL 5000m -0.003 CR CSR
2024-09-10 Willow Metropark OFFICIAL 5000m 19:38.4 80th · 8th on team 104.3 -0.003 CR CSR
2024-09-07 Hedges Boyer Park 5000m 19:19.3 124th · 6th on team 105.4 -0.003 CSR
2024-08-23 Ford Field/EE Ice Arena(LIVONIA) OFFICIAL 5000m 17:44.7 52nd · 6th on team 116.9 +0.013 ★CR SR CSR RSR

2023 XC 111.0

Temperance Bedford (MI) · Grade 9

Date Meet Event Result Place Rating Difficulty PR/SR Flags
2023-10-28 Lake Erie Metro Park OFFICIAL 5000m 17:39 11th · 2nd on team 116.9 +0.007 PR CR SR CSR RSR
2023-10-19 Hudson Mills Metropark - OFFICIAL 5000m 18:53.74 30th · 6th on team 107.8 -0.006 CR CSR
2023-10-14 Munson Park 5000m 18:41.8 8th · 4th on team 111.2 +0.007 CR CSR
2023-09-30 Lake Erie Metro Park OFFICIAL 5000m 18:11.4 1st · 1st on team 113.9 +0.007 CR CSR
2023-09-27 Saline High School 5000m 17:48.4 54th · 10th on team 114.2 -0.009 PR ★CR SR CSR RSR
2023-09-22 Ella Sharp Park OFFICIAL 5000m 18:05.7 7th · 1st on team 113.9 -0.001 PR CR SR CSR RSR
2023-09-16 Ottawa Park Golf Course 5000m 19:28.2 54th · 9th on team 105.3 -0.001 ★CR CSR
2023-09-13 Indian Creek OFFICIAL 5000m 18:58.3 20th · 6th on team 108.6 +0.004 PR CR SR CSR RSR
2023-09-09 Hedges Boyer Park 5000m 19:00.1 77th · 6th on team 107.0 -0.003 PR ★CR SR CSR RSR
2023-09-02 Forest Creason Golf Course 5000m 21:27.6 164th · 23rd on team -0.002 PR ★CR SR CSR

2022 XC 122.7

Temperance Bedford (MI) · Grade 8

Date Meet Event Result Place Rating Difficulty PR/SR Flags
2022-10-22 Hudson HS 3218m 13:11.4 60th · 7th on team 113.4 -0.009 ★CR CSR
2022-10-19 Saline High School 3218m 12:22.8 19th · 3rd on team 120.4 -0.021 ★CR CSR
2022-10-15 Munson Park 3200m 11:56.9 11th · 3rd on team 125.8 +0.000 ★PR ★CR SR CSR
2022-10-08 Monroe Township Stoneco Park 3218m 11:38.4 2nd · 2nd on team 126.0 -0.030 ★CR CSR
2022-10-01 Lake Erie Metro Park OFFICIAL 3218m 11:35.4 5th · 2nd on team 130.6 -0.000 ★PR ★CR SR CSR RSR
2022-09-23 Ella Sharp Park OFFICIAL 3218m 11:53.7 10th · 2nd on team 128.2 +0.004 PR ★CR SR CSR RSR
2022-09-21 Manly W. Bennett Park 3218m 12:59.4 15th · 2nd on team 123.3 +0.058 ★CR SR CSR
2022-09-17 Ottawa Park Golf Course 3200m 12:31.7 10th · 2nd on team 124.3 +0.027 SR CSR RSR
2022-09-10 Hedges Boyer Park 2816m 12:01.7 21st · 2nd on team 112.0 ★PR ★CR SR CSR RSR

2021 XC 121.0

Temperance Bedford (MI) · Grade 7

Date Meet Event Result Place Rating Difficulty PR/SR Flags
2021-10-20 Munson Park 3200m 14:03.3 41st · 10th on team 108.5 +0.000
2021-10-16 Munson Park 3200m 13:22.4 12th · 7th on team 114.0 +0.000 CR CSR
2021-10-06 Hudson Mills Metropark - OFFICIAL 3000m 12:00.4 7th · 4th on team 120.6 -0.022 ★PR ★CR SR CSR
2021-10-02 Lake Erie Metro Park OFFICIAL 3218m 12:03.4 9th · 3rd on team 127.0 -0.000 PR CR SR CSR
2021-09-24 Ella Sharp Park OFFICIAL 3218m 12:16 10th · 3rd on team 127.2 +0.004 PR CR R SR CSR RSR
2021-09-18 Ottawa Park Golf Course 3200m 12:24 23rd · 6th on team 125.9 +0.027 PR ★CR R SR CSR RSR
2021-09-11 Hedges Boyer Park 3200m 12:40.2 54th · 6th on team 122.4 +0.015 PR ★CR SR CSR
2021-09-01 Eastwood High School 3200m 12:50 8th · 1st on team 122.7 +0.037 PR ★CR R SR CSR RSR

2020 XC 103.1

Temperance Bedford (MI) · Grade 6

Date Meet Event Result Place Rating Difficulty PR/SR Flags
2020-10-14 Indian Creek OFFICIAL 3200m 13:09 19th · 15th on team 113.9 -0.001 PR ★CR R SR CSR RSR
2020-10-07 Hudson Mills Metropark - OFFICIAL 3218m 14:43.5 20th · 15th on team 107.2 +0.020 PR ★CR SR CSR
2020-09-24 Indian Creek OFFICIAL 3200m 13:53 15th · 14th on team 110.1 -0.001 PR CR R SR CSR RSR
2020-09-19 Indian Creek OFFICIAL 3218m 15:23 29th · 26th on team 97.8 -0.001 PR ★CR SR CSR
2020-09-16 Rolling Hills 3218m 15:34 23rd · 21st on team 101.9 +0.023 PR ★CR R SR CSR RSR
2020-09-09 Indian Creek OFFICIAL 3200m 14:45 18th · 18th on team 101.3 -0.001 PR CR R SR CSR RSR
2020-08-29 Indian Creek OFFICIAL 3200m 16:55 27th · 27th on team 89.8 -0.001 PR CR R SR CSR RSR

Track & Field

TF speed rating

2026 TF 128.7

Frog Leg Track Club (MI) · Grade 11

Date Meet Event Result Place Rating Difficulty PR/SR Flags
2026-06-18 New Balance Nationals Outdoor 800m 1:53.74 68th · 1st on team 131.0 -0.045
2026-06-05 4th Annual MITCA Champions of Champions 800m 1:53.61 2nd · 1st on team 133.1 -0.031 SR RSR
2026-05-30 MHSAA LP Division 1 Finals 800m 1:53.86 4th · 1st on team 132.5 -0.033 SR RSR
2026-05-26 2026 Larry Steeb Memorial Meet of Champions 1600m 4:22.33 3rd · 1st on team 129.3 -0.027 ★PR SR
2026-05-22 2026 MITCA D1 Team State 800m 1:55.94 2nd · 1st on team 130.5 -0.031
2026-05-15 MHSAA LP Region 05-1 @ Saline 800m 1:54.69 1st · 1st on team 131.6 -0.033 RSR
2026-05-07 SEC-HS Red Championship (EQ Approved) 800m 1:57.32 3rd · 1st on team 129.8 -0.024
2026-05-01 2026 Saline Golden Triangle (EQ Approved) 800m 1:55.01 5th · 1st on team 131.2 -0.033
2026-04-28 SEC-HS: Bedford @ Monroe 1600m 4:33.11 1st · 1st on team 124.9 -0.022
2026-04-10 Whitmer Gold W Invite 800m 1:56.98 1st · 1st on team 128.8 -0.034
2026-04-07 SEC-HS: Bedford & Dexter @ Skyline 1600m 4:34.59 4th · 1st on team 124.3 -0.021
2026-03-26 Lincoln Indoor Invite 1600m 4:30.12 2nd · 1st on team 125.3 -0.029 PR SR
2026-03-22 Adidas Indoor National 800m 1:55.16 6th · 1st on team 131.2 -0.036
2026-03-13 New Balance Nationals Indoor 800m 1:53.97 34th · 1st on team 131.4 -0.044 SR
2026-03-07 2026 MITS/MITCA Indoor TF State Championships 800m 1:56.48 3rd · 1st on team 131.5 -0.032 RSR
2026-02-21 The CIRCUIT Chicago 800m 1:57.49 8th · 1st on team 128.1 -0.040
2026-02-14 SVSU - MITS Distance Fest 800m 1:55.83 6th · 1st on team 129.6 -0.038
2026-02-07 LAB Indoor Meet #9 400m 51.11 13th · 1st on team -0.029 ★PR SR
2026-01-31 LAB Indoor Meet #8 1500m 4:12.62 9th · 1st on team 124.5 -0.029 SR
2026-01-24 LAB Indoor Meet #7 400m 52.46 9th · 1st on team -0.029 SR
2026-01-02 KYA HS Indoor Classic 1mile 4:29.84 13th · 1st on team 125.2 -0.041 ★PR SR
2026-01-02 KYA HS Indoor Classic 800m 1:55.18 4th · 1st on team 130.5 -0.041 SR
2025-12-27 LAB Holiday Invite 800m 1:55.35 3rd · 1st on team 131.2 -0.029 SR RSR
2025-12-20 LAB Indoor Meet #2 600m 1:20.75 3rd · 1st on team -0.029 ★PR SR
2025-12-13 LAB Indoor Meet #1 600m 1:23.61 2nd · 1st on team -0.029 PR SR
2025-08-02 AAU Junior Olympic Games 800m 1:58 16th · 2nd on team 127.8 -0.032 SR RSR
2025-08-02 AAU Junior Olympic Games 800m 1:56.76 9th · 1st on team 129.1 -0.032 SR RSR
2025-08-02 AAU Junior Olympic Games 1500m 4:28.03 39th · 1st on team 116.6 -0.032 SR

2025 TF 127.9

Unattached (TX) · Grade 10

Date Meet Event Result Place Rating Difficulty PR/SR Flags
2025-06-26 AAU Track & Field Region 12 Qualifier 800m 1:57.66 2nd · 1st on team 129.7 -0.021
2025-06-26 AAU Track & Field Region 12 Qualifier 1500m 4:11.99 2nd · 1st on team 125.6 -0.021 ★PR SR
2025-06-26 AAU Track & Field Region 12 Qualifier 2ksteeple 6:40 1st · 1st on team -0.021 ★PR SR
2025-06-19 New Balance Nationals Outdoor 800m 1:55.98 121st · 1st on team 128.6 -0.045
2025-06-07 3rd Annual MITCA Champions of Champions TF Festival 800m 1:53.47 4th · 1st on team 133.4 -0.031 ★PR SR RSR
2025-05-31 MHSAA LP Division 1 Finals 800m 1:56.16 7th · 1st on team 130.5 -0.029
2025-05-27 25 Larry Steeb Memorial Meet of Champions 800m 1:55.36 3rd · 1st on team 131.6 -0.027 PR SR
2025-05-23 2025 MITCA D1 Team State 800m 1:57.2 1st · 1st on team 130.1 -0.031
2025-05-16 MHSAA LP Region 05-1 @ Ypsi Lincoln 800m 1:56.26 1st · 1st on team 131.7 -0.021 RSR
2025-05-08 SEC-HS Championship (Red) (EQ Approved) 800m 1:57.34 2nd · 1st on team 130.1 -0.026
2025-05-02 Knight (Boys)Relays 2025 800m 1:59.03 2nd · 1st on team 126.2 -0.033
2025-04-29 SEC-HS: Lincoln @ Bedford 400m 52.5 1st · 1st on team -0.026
2025-04-26 2025 April Showers Invitational (EQ Approved) 800m 1:58.57 1st · 1st on team 128.3 -0.027
2025-04-22 SEC-HS: Bedford & Pioneer @ Monroe 800m 1:59.78 2nd · 1st on team 126.9 -0.022
2025-04-19 5th Titan Varsity Invite 800m 2:01.48 4th · 1st on team 124.3 -0.035
2025-04-15 SEC-HS: Bedford & Dexter @ Skyline 400m 54.51 3rd · 1st on team -0.021
2025-04-11 Whitmer Gold W 2025 800m 1:58.24 2nd · 1st on team 127.6 -0.034
2025-04-11 Whitmer Gold W 2025 800m 1:58.24 2nd · 1st on team 127.6 -0.034
2025-04-07 SEC-HS: Huron & Saline @ Bedford 800m 2:03.83 1st · 1st on team 122.8 -0.026
2025-03-20 '25 Lincoln Spring Indoor Classic 400m 54.29 4th · 1st on team -0.029
2025-03-08 MITS/MITCA Indoor TF State Championships 800m 2:01.62 13th · 1st on team 125.8 -0.033
2025-02-21 2025 Midwest Showcase - HS Division 800m 1:56.09 5th · 1st on team 130.4 -0.029 PR SR RSR
2025-02-15 SVSU - MITS Distance Fest 800m 1:59.42 10th · 1st on team 125.6 -0.038
2025-02-08 LAB Indoor Meet #9 800m 2:01.06 6th · 1st on team 125.0 -0.029
2025-01-19 University of Michigan HS Showcase 800m 1:59.5 14th · 1st on team 126.1 -0.037
2025-01-11 LAB Indoor Meet #5 800m 1:59.21 3rd · 1st on team 127.0 -0.029
2025-01-04 LAB Indoor Meet #4 800m 1:59.06 2nd · 1st on team 127.1 -0.029 PR SR RSR
2024-12-27 LAB Holiday Invite 200m 24.06 27th · 1st on team -0.029 ★PR SR
2024-12-27 LAB Holiday Invite 400m 52.23 4th · 1st on team -0.029 SR
2024-12-21 LAB Indoor Meet #2 lj 17' 8 -0.029
2024-12-21 LAB Indoor Meet #2 60m 7.85 106th · 3rd on team -0.029 SR
2024-12-14 LAB Indoor Meet #1 lj 18' 4.75 -0.029
2024-12-14 LAB Indoor Meet #1 300m 37.93 28th · 1st on team -0.029 ★PR SR

2024 TF 121.6

Frog Leg Track Club (MI) · Grade 9

Date Meet Event Result Place Rating Difficulty PR/SR Flags
2024-06-30 Area 12 Regional Qualifier 800m 2:03.15 5th · 1st on team 123.6 -0.026
2024-06-30 Area 12 Regional Qualifier 400m 52.33 9th · 1st on team -0.026
2024-06-16 New Balance Nationals Outdoor 800m 1:59.83 27th · 1st on team 124.3 -0.045 PR SR
2024-05-28 24 Larry Steeb Meet Of Championships 400m 51.89 11th · 2nd on team -0.027 PR SR
2024-05-24 2024 MITCA D1 Team State 800m 2:04.51 11th · 2nd on team 121.8 -0.031
2024-05-23 Dundee Jim Beck Freshman Invite 400m 52.53 1st · 1st on team -0.016
2024-05-17 MHSAA LP Region 05-1 @ Ypsi Lincoln 800m 2:05.45 12th · 2nd on team 121.6 -0.021
2024-05-09 SEC-HS: Championship (Red) 800m 2:01.37 7th · 2nd on team 126.6 -0.022 PR SR RSR
2024-05-03 Clay Eagle Invitational 800m 2:02.58 6th · 2nd on team 123.3 -0.033
2024-04-30 SEC-HS: Bedford @ Lincoln 800m 2:05.05 3rd · 2nd on team 121.9 -0.021
2024-04-26 Knight Relays 800m 2:02.52 4th · 1st on team 123.4 -0.033 RSR
2024-04-20 Woodhaven Warrior Classic 800m 2:05.93 5th · 2nd on team 122.8 -0.017 RSR
2024-04-16 SEC-HS: Skyline & Bedford at Dexter 400m 53.84 4th · 2nd on team -0.027
2024-04-10 2024 Springfield Track & Field Invitational 400m 54.11 2nd · 1st on team -0.020
2024-04-09 SEC HS: Huron & Saline at Bedford lj 17' 8.5 -0.026
2024-04-09 SEC HS: Huron & Saline at Bedford 400m 54.48 4th · 1st on team -0.026
2024-03-21 '24 SEC Invite 800m 2:05.77 9th · 2nd on team 120.5 -0.029
2024-03-10 New Balance Nationals Indoor 400m 52.03 9th · 1st on team -0.045 PR SR
2024-03-10 New Balance Nationals Indoor 800m 2:02.18 8th · 1st on team 122.1 -0.045 PR SR RSR
2024-02-17 LAB Indoor Meet #9 lj 17' 6.5 -0.029
2024-02-17 LAB Indoor Meet #9 200m 24.62 27th · 1st on team -0.029 PR SR
2024-02-10 LAB Indoor Meet #8 lj 16' 4.5 -0.029
2024-02-03 LAB Indoor Meet #7 lj 16' 7.5 -0.029
2024-02-03 LAB Indoor Meet #7 800m 2:06.26 24th · 1st on team 120.1 -0.029 PR SR RSR
2024-02-03 LAB Indoor Meet #7 60m 7.82 100th · 1st on team -0.029 ★PR SR
2024-01-27 LAB Indoor Meet #6 400m 54.12 46th · 1st on team -0.029 PR SR
2024-01-27 LAB Indoor Meet #6 60m 7.92 114th · 1st on team -0.029 PR SR
2024-01-20 LAB Indoor Meet #5 hj 4' 10 -0.029
2024-01-20 LAB Indoor Meet #5 1600m 4:59.55 35th · 3rd on team 112.8 -0.029 PR SR RSR
2024-01-20 LAB Indoor Meet #5 800m 2:09.09 9th · 1st on team 117.4 -0.029 PR SR RSR
2023-12-29 LAB Holiday Invite hj 5' 0 -0.029
2023-12-29 LAB Holiday Invite 400m 54.83 26th · 1st on team -0.029 PR SR

2023 TF 128.5

Unattached (TX) · Grade 8

Date Meet Event Result Place Rating Difficulty PR/SR Flags
2023-07-02 AAU Region 12 National Qualifier hj 4-10.00 -0.021
2023-07-02 AAU Region 12 National Qualifier 800m 2:12.41 1st · 1st on team 83.7 -0.021
2023-07-02 AAU Region 12 National Qualifier 400m 56.73 8th · 1st on team -0.021 PR SR
2023-05-22 SEC-MS: Championship 800m 2:09.67 1st · 1st on team 139.8 -0.033 PR ★R SR RSR
2023-05-17 23 Saline Middle School Hornet Relays 800m 2:16.97 1st · 1st on team 132.6 -0.033
2023-05-15 SEC-MS: Lincoln & Bedford @ Monroe hj 4' 10 -0.022
2023-05-15 SEC-MS: Lincoln & Bedford @ Monroe 800m 2:12.77 1st · 1st on team 138.4 -0.022 PR R SR RSR
2023-05-08 SEC-MS Chelsea & Ypsi @Bedford hj 4-8.0 -0.026
2023-05-08 SEC-MS Chelsea & Ypsi @Bedford 800m 2:13 1st · 1st on team 137.6 -0.026 PR R SR RSR
2023-05-04 SEC-MS Bedford at Saline hj 4' 6 -0.030
2023-05-04 SEC-MS Bedford at Saline 800m 2:13.08 1st · 1st on team 136.2 -0.030 PR R SR RSR
2023-04-27 SEC-MS: Bedford @ Pinckney hj 4' 6 -0.020
2023-04-27 SEC-MS: Bedford @ Pinckney 800m 2:20.2 1st · 1st on team 131.2 -0.020 SR RSR

2022 TF 128.7

Temperance Bedford (MI) · Grade 7

Date Meet Event Result Place Rating Difficulty PR/SR Flags
2022-05-09 SEC-MS Tecumseh @ Bedford 55mh 10.44 7th · 7th on team -0.026 ★PR SR
2022-05-09 SEC-MS Tecumseh @ Bedford 800m 2:22.7 1st · 1st on team 129.4 -0.026
2022-05-04 SEC MS: Bedford and Lincoln @ Adrian 800m 2:19.87 2nd · 1st on team 132.4 -0.018 PR R SR RSR
2022-05-04 SEC MS: Bedford and Lincoln @ Adrian 55mh 10.87 8th · 7th on team -0.018 PR SR
2022-04-28 SEC-MS Monroe @ Bedford 1600m 5:25.13 2nd · 2nd on team 123.9 -0.026 PR SR
2022-04-28 SEC-MS Monroe @ Bedford 200mh 30.5 1st · 1st on team -0.026 ★PR SR
2022-04-25 SEC MS: Lincoln @ Bedford 55mh 11.09 10th · 7th on team -0.026 PR SR
2022-04-25 SEC MS: Lincoln @ Bedford 800m 2:22.9 1st · 1st on team 129.0 -0.026 PR R SR RSR

2021 TF 110.3

Temperance Bedford (MI) · Grade 6

Date Meet Event Result Place Rating Difficulty PR/SR Flags
2021-05-10 Adrian MS @ Bedford MS 800m 2:48.26 5th · 4th on team 110.3 -0.026 PR SR RSR
2021-04-29 Dexter MS @ Bedford MS 800m 2:59.81 9th · 5th on team -0.026 PR SR
2021-04-29 Dexter MS @ Bedford MS 100m 16.28 21st · 12th on team -0.026 ★PR SR